sensor_id;sensor_type;location;lat;lon;timestamp;temperature;humidity
6724;DHT22;3399;52.530;13.304;2022-12-18T00:01:16;-3.40;99.90
6724;DHT22;3399;52.530;13.304;2022-12-18T00:03:44;-3.30;99.90
6724;DHT22;3399;52.530;13.304;2022-12-18T00:06:10;-3.20;99.90
6724;DHT22;3399;52.530;13.304;2022-12-18T00:08:37;-3.20;99.90
6724;DHT22;3399;52.530;13.304;2022-12-18T00:11:07;-3.10;99.90
6724;DHT22;3399;52.530;13.304;2022-12-18T00:13:33;-3.20;99.90
6724;DHT22;3399;52.530;13.304;2022-12-18T00:16:04;-3.20;99.90
6724;DHT22;3399;52.530;13.304;2022-12-18T00:18:31;-3.10;99.90
6724;DHT22;3399;52.530;13.304;2022-12-18T00:21:01;-2.90;99.90
6724;DHT22;3399;52.530;13.304;2022-12-18T00:23:27;-2.70;99.90
6724;DHT22;3399;52.530;13.304;2022-12-18T00:25:53;-2.60;99.90
6724;DHT22;3399;52.530;13.304;2022-12-18T00:28:18;-2.60;99.90
6724;DHT22;3399;52.530;13.304;2022-12-18T00:30:44;-2.60;99.90
6724;DHT22;3399;52.530;13.304;2022-12-18T00:33:09;-2.60;99.90
6724;DHT22;3399;52.530;13.304;2022-12-18T00:35:35;-2.60;99.90
6724;DHT22;3399;52.530;13.304;2022-12-18T00:38:00;-2.70;99.90
6724;DHT22;3399;52.530;13.304;2022-12-18T00:40:26;-2.80;99.90
6724;DHT22;3399;52.530;13.304;2022-12-18T00:42:51;-3.00;99.90
6724;DHT22;3399;52.530;13.304;2022-12-18T00:45:29;-3.10;99.90
6724;DHT22;3399;52.530;13.304;2022-12-18T00:47:55;-3.20;99.90
6724;DHT22;3399;52.530;13.304;2022-12-18T00:50:22;-3.20;99.90
6724;DHT22;3399;52.530;13.304;2022-12-18T00:52:47;-3.20;99.90
6724;DHT22;3399;52.530;13.304;2022-12-18T00:55:13;-3.10;99.90
6724;DHT22;3399;52.530;13.304;2022-12-18T00:57:39;-3.20;99.90
6724;DHT22;3399;52.530;13.304;2022-12-18T01:00:06;-3.20;99.90
6724;DHT22;3399;52.530;13.304;2022-12-18T01:02:32;-3.20;99.90
6724;DHT22;3399;52.530;13.304;2022-12-18T01:04:58;-3.20;99.90
6724;DHT22;3399;52.530;13.304;2022-12-18T01:07:23;-3.20;99.90
6724;DHT22;3399;52.530;13.304;2022-12-18T01:09:49;-3.30;99.90
6724;DHT22;3399;52.530;13.304;2022-12-18T01:12:14;-3.30;99.90
6724;DHT22;3399;52.530;13.304;2022-12-18T01:14:40;-3.30;99.90
6724;DHT22;3399;52.530;13.304;2022-12-18T01:17:05;-3.30;99.90
6724;DHT22;3399;52.530;13.304;2022-12-18T01:19:31;-3.30;99.90
6724;DHT22;3399;52.530;13.304;2022-12-18T01:21:57;-3.40;99.90
6724;DHT22;3399;52.530;13.304;2022-12-18T01:24:23;-3.30;99.90
6724;DHT22;3399;52.530;13.304;2022-12-18T01:26:48;-3.40;99.90
6724;DHT22;3399;52.530;13.304;2022-12-18T01:29:14;-3.40;99.90
6724;DHT22;3399;52.530;13.304;2022-12-18T01:31:39;-3.40;99.90
6724;DHT22;3399;52.530;13.304;2022-12-18T01:34:05;-3.30;99.90
6724;DHT22;3399;52.530;13.304;2022-12-18T01:36:33;-3.30;99.90
6724;DHT22;3399;52.530;13.304;2022-12-18T01:39:01;-3.30;99.90
6724;DHT22;3399;52.530;13.304;2022-12-18T01:41:29;-3.30;99.90
6724;DHT22;3399;52.530;13.304;2022-12-18T01:47:25;-3.40;99.90
6724;DHT22;3399;52.530;13.304;2022-12-18T01:49:52;-3.50;99.90
6724;DHT22;3399;52.530;13.304;2022-12-18T01:52:18;-3.50;99.90
6724;DHT22;3399;52.530;13.304;2022-12-18T01:54:45;-3.40;99.90
6724;DHT22;3399;52.530;13.304;2022-12-18T01:57:11;-3.50;99.90
6724;DHT22;3399;52.530;13.304;2022-12-18T01:59:39;-3.60;99.90
6724;DHT22;3399;52.530;13.304;2022-12-18T02:02:05;-3.70;99.90
6724;DHT22;3399;52.530;13.304;2022-12-18T02:04:31;-3.70;99.90
6724;DHT22;3399;52.530;13.304;2022-12-18T02:07:23;-3.60;99.90
6724;DHT22;3399;52.530;13.304;2022-12-18T02:09:59;-3.60;99.90
6724;DHT22;3399;52.530;13.304;2022-12-18T02:12:30;-3.50;99.90
6724;DHT22;3399;52.530;13.304;2022-12-18T02:15:02;-3.40;99.90
6724;DHT22;3399;52.530;13.304;2022-12-18T02:17:52;-3.40;99.90
6724;DHT22;3399;52.530;13.304;2022-12-18T02:20:24;-3.40;99.90
6724;DHT22;3399;52.530;13.304;2022-12-18T02:23:31;-3.40;99.90
6724;DHT22;3399;52.530;13.304;2022-12-18T02:26:13;-3.30;99.90
6724;DHT22;3399;52.530;13.304;2022-12-18T02:31:39;-3.40;99.90
6724;DHT22;3399;52.530;13.304;2022-12-18T02:34:06;-3.50;99.90
6724;DHT22;3399;52.530;13.304;2022-12-18T02:36:34;-3.60;99.90
6724;DHT22;3399;52.530;13.304;2022-12-18T02:39:01;-3.60;99.90
6724;DHT22;3399;52.530;13.304;2022-12-18T02:41:28;-3.60;99.90
6724;DHT22;3399;52.530;13.304;2022-12-18T02:43:59;-3.60;99.90
6724;DHT22;3399;52.530;13.304;2022-12-18T02:46:32;-3.60;99.90
6724;DHT22;3399;52.530;13.304;2022-12-18T02:49:26;-3.50;99.90
6724;DHT22;3399;52.530;13.304;2022-12-18T02:52:01;-3.50;99.90
6724;DHT22;3399;52.530;13.304;2022-12-18T02:54:43;-3.40;99.90
6724;DHT22;3399;52.530;13.304;2022-12-18T02:57:22;-3.40;99.90
6724;DHT22;3399;52.530;13.304;2022-12-18T02:59:58;-3.40;99.90
6724;DHT22;3399;52.530;13.304;2022-12-18T03:02:45;-3.40;99.90
6724;DHT22;3399;52.530;13.304;2022-12-18T03:05:20;-3.40;99.90
6724;DHT22;3399;52.530;13.304;2022-12-18T03:10:28;-3.50;99.90
6724;DHT22;3399;52.530;13.304;2022-12-18T03:13:00;-3.50;99.90
6724;DHT22;3399;52.530;13.304;2022-12-18T03:15:35;-3.60;99.90
6724;DHT22;3399;52.530;13.304;2022-12-18T03:18:06;-3.50;99.90
6724;DHT22;3399;52.530;13.304;2022-12-18T03:20:34;-3.50;99.90
6724;DHT22;3399;52.530;13.304;2022-12-18T03:23:09;-3.50;99.90
6724;DHT22;3399;52.530;13.304;2022-12-18T03:25:38;-3.60;99.90
6724;DHT22;3399;52.530;13.304;2022-12-18T03:28:08;-3.60;99.90
6724;DHT22;3399;52.530;13.304;2022-12-18T03:30:37;-3.60;99.90
6724;DHT22;3399;52.530;13.304;2022-12-18T03:33:12;-3.60;99.90
6724;DHT22;3399;52.530;13.304;2022-12-18T03:35:41;-3.60;99.90
6724;DHT22;3399;52.530;13.304;2022-12-18T03:38:08;-3.70;99.90
6724;DHT22;3399;52.530;13.304;2022-12-18T03:40:43;-3.80;99.90
6724;DHT22;3399;52.530;13.304;2022-12-18T03:43:30;-3.80;99.90
6724;DHT22;3399;52.530;13.304;2022-12-18T03:46:07;-3.90;99.90
6724;DHT22;3399;52.530;13.304;2022-12-18T03:48:38;-3.90;99.90
6724;DHT22;3399;52.530;13.304;2022-12-18T03:51:11;-3.90;99.90
6724;DHT22;3399;52.530;13.304;2022-12-18T03:53:58;-3.90;99.90
6724;DHT22;3399;52.530;13.304;2022-12-18T03:56:29;-3.90;99.90
6724;DHT22;3399;52.530;13.304;2022-12-18T03:58:55;-3.90;99.90
6724;DHT22;3399;52.530;13.304;2022-12-18T04:01:26;-3.80;99.90
6724;DHT22;3399;52.530;13.304;2022-12-18T04:03:54;-3.70;99.90
6724;DHT22;3399;52.530;13.304;2022-12-18T04:06:20;-3.60;99.90
6724;DHT22;3399;52.530;13.304;2022-12-18T04:08:46;-3.60;99.90
6724;DHT22;3399;52.530;13.304;2022-12-18T04:11:12;-3.60;99.90
6724;DHT22;3399;52.530;13.304;2022-12-18T04:13:38;-3.60;99.90
6724;DHT22;3399;52.530;13.304;2022-12-18T04:16:04;-3.60;99.90
6724;DHT22;3399;52.530;13.304;2022-12-18T04:18:30;-3.60;99.90
6724;DHT22;3399;52.530;13.304;2022-12-18T04:20:55;-3.60;99.90
6724;DHT22;3399;52.530;13.304;2022-12-18T04:23:21;-3.70;99.90
6724;DHT22;3399;52.530;13.304;2022-12-18T04:25:49;-3.70;99.90
6724;DHT22;3399;52.530;13.304;2022-12-18T04:28:14;-3.70;99.90
6724;DHT22;3399;52.530;13.304;2022-12-18T04:30:40;-3.70;99.90
6724;DHT22;3399;52.530;13.304;2022-12-18T04:33:10;-3.70;99.90
6724;DHT22;3399;52.530;13.304;2022-12-18T04:35:36;-3.80;99.90
6724;DHT22;3399;52.530;13.304;2022-12-18T04:38:01;-3.80;99.90
6724;DHT22;3399;52.530;13.304;2022-12-18T04:40:27;-3.90;99.90
6724;DHT22;3399;52.530;13.304;2022-12-18T04:42:52;-3.90;99.90
6724;DHT22;3399;52.530;13.304;2022-12-18T04:45:18;-3.90;99.90
6724;DHT22;3399;52.530;13.304;2022-12-18T04:47:43;-4.00;99.90
6724;DHT22;3399;52.530;13.304;2022-12-18T04:50:09;-4.00;99.90
6724;DHT22;3399;52.530;13.304;2022-12-18T04:52:35;-4.00;99.90
6724;DHT22;3399;52.530;13.304;2022-12-18T04:55:01;-4.10;99.90
6724;DHT22;3399;52.530;13.304;2022-12-18T04:57:27;-4.10;99.90
6724;DHT22;3399;52.530;13.304;2022-12-18T04:59:52;-4.10;99.90
6724;DHT22;3399;52.530;13.304;2022-12-18T05:02:18;-4.00;99.90
6724;DHT22;3399;52.530;13.304;2022-12-18T05:04:43;-4.10;99.90
6724;DHT22;3399;52.530;13.304;2022-12-18T05:07:08;-4.00;99.90
6724;DHT22;3399;52.530;13.304;2022-12-18T05:09:34;-4.00;99.90
6724;DHT22;3399;52.530;13.304;2022-12-18T05:11:59;-4.00;99.90
6724;DHT22;3399;52.530;13.304;2022-12-18T05:14:25;-3.90;99.90
6724;DHT22;3399;52.530;13.304;2022-12-18T05:16:52;-4.00;99.90
6724;DHT22;3399;52.530;13.304;2022-12-18T05:19:18;-4.10;99.90
6724;DHT22;3399;52.530;13.304;2022-12-18T05:21:43;-4.30;99.90
6724;DHT22;3399;52.530;13.304;2022-12-18T05:24:09;-4.30;99.90
6724;DHT22;3399;52.530;13.304;2022-12-18T05:26:34;-4.30;99.90
6724;DHT22;3399;52.530;13.304;2022-12-18T05:29:00;-4.30;99.90
6724;DHT22;3399;52.530;13.304;2022-12-18T05:31:25;-4.20;99.90
6724;DHT22;3399;52.530;13.304;2022-12-18T05:33:51;-4.10;99.90
6724;DHT22;3399;52.530;13.304;2022-12-18T05:36:16;-4.00;99.90
6724;DHT22;3399;52.530;13.304;2022-12-18T05:38:42;-4.00;99.90
6724;DHT22;3399;52.530;13.304;2022-12-18T05:41:08;-4.00;99.90
6724;DHT22;3399;52.530;13.304;2022-12-18T05:43:36;-3.90;99.90
6724;DHT22;3399;52.530;13.304;2022-12-18T05:46:12;-3.90;99.90
6724;DHT22;3399;52.530;13.304;2022-12-18T05:48:38;-3.80;99.90
6724;DHT22;3399;52.530;13.304;2022-12-18T05:51:09;-3.90;99.90
6724;DHT22;3399;52.530;13.304;2022-12-18T05:53:36;-3.90;99.90
6724;DHT22;3399;52.530;13.304;2022-12-18T05:56:04;-3.80;99.90
6724;DHT22;3399;52.530;13.304;2022-12-18T05:58:31;-3.90;99.90
6724;DHT22;3399;52.530;13.304;2022-12-18T06:01:05;-4.10;99.90
6724;DHT22;3399;52.530;13.304;2022-12-18T06:03:30;-4.10;99.90
6724;DHT22;3399;52.530;13.304;2022-12-18T06:05:56;-4.00;99.90
6724;DHT22;3399;52.530;13.304;2022-12-18T06:08:21;-4.10;99.90
6724;DHT22;3399;52.530;13.304;2022-12-18T06:10:51;-4.20;99.90
6724;DHT22;3399;52.530;13.304;2022-12-18T06:13:20;-4.20;99.90
6724;DHT22;3399;52.530;13.304;2022-12-18T06:15:46;-4.20;99.90
6724;DHT22;3399;52.530;13.304;2022-12-18T06:18:12;-4.30;99.90
6724;DHT22;3399;52.530;13.304;2022-12-18T06:20:38;-4.30;99.90
6724;DHT22;3399;52.530;13.304;2022-12-18T06:23:05;-4.40;99.90
6724;DHT22;3399;52.530;13.304;2022-12-18T06:25:32;-4.20;99.90
6724;DHT22;3399;52.530;13.304;2022-12-18T06:27:58;-4.20;99.90
6724;DHT22;3399;52.530;13.304;2022-12-18T06:30:24;-4.20;99.90
6724;DHT22;3399;52.530;13.304;2022-12-18T06:32:49;-4.20;99.90
6724;DHT22;3399;52.530;13.304;2022-12-18T06:35:15;-4.10;99.90
6724;DHT22;3399;52.530;13.304;2022-12-18T06:37:41;-4.10;99.90
6724;DHT22;3399;52.530;13.304;2022-12-18T06:40:07;-4.00;99.90
6724;DHT22;3399;52.530;13.304;2022-12-18T06:42:32;-4.00;99.90
6724;DHT22;3399;52.530;13.304;2022-12-18T06:44:58;-4.00;99.90
6724;DHT22;3399;52.530;13.304;2022-12-18T06:47:23;-4.00;99.90
6724;DHT22;3399;52.530;13.304;2022-12-18T06:49:49;-4.00;99.90
6724;DHT22;3399;52.530;13.304;2022-12-18T06:52:15;-4.00;99.90
6724;DHT22;3399;52.530;13.304;2022-12-18T06:54:40;-4.10;99.90
6724;DHT22;3399;52.530;13.304;2022-12-18T06:57:05;-4.10;99.90
6724;DHT22;3399;52.530;13.304;2022-12-18T06:59:31;-4.10;99.90
6724;DHT22;3399;52.530;13.304;2022-12-18T07:01:56;-4.00;99.90
6724;DHT22;3399;52.530;13.304;2022-12-18T07:04:22;-4.00;99.90
6724;DHT22;3399;52.530;13.304;2022-12-18T07:06:52;-4.00;99.90
6724;DHT22;3399;52.530;13.304;2022-12-18T07:09:17;-4.00;99.90
6724;DHT22;3399;52.530;13.304;2022-12-18T07:11:43;-4.00;99.90
6724;DHT22;3399;52.530;13.304;2022-12-18T07:14:08;-3.90;99.90
6724;DHT22;3399;52.530;13.304;2022-12-18T07:16:33;-3.80;99.90
6724;DHT22;3399;52.530;13.304;2022-12-18T07:18:59;-3.70;99.90
6724;DHT22;3399;52.530;13.304;2022-12-18T07:21:24;-3.70;99.90
6724;DHT22;3399;52.530;13.304;2022-12-18T07:23:50;-3.70;99.90
6724;DHT22;3399;52.530;13.304;2022-12-18T07:26:18;-3.70;99.90
6724;DHT22;3399;52.530;13.304;2022-12-18T07:28:44;-3.80;99.90
6724;DHT22;3399;52.530;13.304;2022-12-18T07:31:12;-3.80;99.90
6724;DHT22;3399;52.530;13.304;2022-12-18T07:33:38;-3.80;99.90
6724;DHT22;3399;52.530;13.304;2022-12-18T07:36:05;-3.80;99.90
6724;DHT22;3399;52.530;13.304;2022-12-18T07:38:32;-3.90;99.90
6724;DHT22;3399;52.530;13.304;2022-12-18T07:41:09;-3.90;99.90
6724;DHT22;3399;52.530;13.304;2022-12-18T07:43:35;-4.00;99.90
6724;DHT22;3399;52.530;13.304;2022-12-18T07:46:01;-4.00;99.90
6724;DHT22;3399;52.530;13.304;2022-12-18T07:48:28;-4.10;99.90
6724;DHT22;3399;52.530;13.304;2022-12-18T07:50:57;-4.00;99.90
6724;DHT22;3399;52.530;13.304;2022-12-18T07:53:22;-4.00;99.90
6724;DHT22;3399;52.530;13.304;2022-12-18T07:55:48;-4.00;99.90
6724;DHT22;3399;52.530;13.304;2022-12-18T07:58:13;-4.00;99.90
6724;DHT22;3399;52.530;13.304;2022-12-18T08:00:39;-4.00;99.90
6724;DHT22;3399;52.530;13.304;2022-12-18T08:03:04;-4.00;99.90
6724;DHT22;3399;52.530;13.304;2022-12-18T08:05:30;-4.00;99.90
6724;DHT22;3399;52.530;13.304;2022-12-18T08:07:55;-3.90;99.90
6724;DHT22;3399;52.530;13.304;2022-12-18T08:10:21;-3.90;99.90
6724;DHT22;3399;52.530;13.304;2022-12-18T08:12:50;-3.80;99.90
6724;DHT22;3399;52.530;13.304;2022-12-18T08:15:16;-3.70;99.90
6724;DHT22;3399;52.530;13.304;2022-12-18T08:17:42;-3.80;99.90
6724;DHT22;3399;52.530;13.304;2022-12-18T08:20:08;-3.80;99.90
6724;DHT22;3399;52.530;13.304;2022-12-18T08:22:39;-3.80;99.90
6724;DHT22;3399;52.530;13.304;2022-12-18T08:25:04;-3.80;99.90
6724;DHT22;3399;52.530;13.304;2022-12-18T08:27:30;-3.70;99.90
6724;DHT22;3399;52.530;13.304;2022-12-18T08:29:56;-3.50;99.90
6724;DHT22;3399;52.530;13.304;2022-12-18T08:32:22;-3.50;99.90
6724;DHT22;3399;52.530;13.304;2022-12-18T08:34:48;-3.50;99.90
6724;DHT22;3399;52.530;13.304;2022-12-18T08:37:13;-3.50;99.90
6724;DHT22;3399;52.530;13.304;2022-12-18T08:39:39;-3.60;99.90
6724;DHT22;3399;52.530;13.304;2022-12-18T08:42:04;-3.60;99.90
6724;DHT22;3399;52.530;13.304;2022-12-18T08:44:49;-3.60;99.90
6724;DHT22;3399;52.530;13.304;2022-12-18T08:47:14;-3.50;99.90
6724;DHT22;3399;52.530;13.304;2022-12-18T08:49:40;-3.40;99.90
6724;DHT22;3399;52.530;13.304;2022-12-18T08:52:05;-3.40;99.90
6724;DHT22;3399;52.530;13.304;2022-12-18T08:54:31;-3.30;99.90
6724;DHT22;3399;52.530;13.304;2022-12-18T08:56:56;-3.30;99.90
6724;DHT22;3399;52.530;13.304;2022-12-18T08:59:22;-3.30;99.90
6724;DHT22;3399;52.530;13.304;2022-12-18T09:01:48;-3.30;99.90
6724;DHT22;3399;52.530;13.304;2022-12-18T09:04:14;-3.20;99.90
6724;DHT22;3399;52.530;13.304;2022-12-18T09:06:40;-3.10;99.90
6724;DHT22;3399;52.530;13.304;2022-12-18T09:09:05;-3.00;99.90
6724;DHT22;3399;52.530;13.304;2022-12-18T09:11:32;-3.00;99.90
6724;DHT22;3399;52.530;13.304;2022-12-18T09:13:59;-2.90;99.90
6724;DHT22;3399;52.530;13.304;2022-12-18T09:16:27;-2.90;99.90
6724;DHT22;3399;52.530;13.304;2022-12-18T09:18:56;-2.90;99.90
6724;DHT22;3399;52.530;13.304;2022-12-18T09:21:25;-3.00;99.90
6724;DHT22;3399;52.530;13.304;2022-12-18T09:23:52;-2.90;99.90
6724;DHT22;3399;52.530;13.304;2022-12-18T09:26:19;-2.90;99.90
6724;DHT22;3399;52.530;13.304;2022-12-18T09:28:45;-2.90;99.90
6724;DHT22;3399;52.530;13.304;2022-12-18T09:31:12;-2.90;99.90
6724;DHT22;3399;52.530;13.304;2022-12-18T09:33:38;-3.00;99.90
6724;DHT22;3399;52.530;13.304;2022-12-18T09:36:06;-3.00;99.90
6724;DHT22;3399;52.530;13.304;2022-12-18T09:38:32;-3.10;99.90
6724;DHT22;3399;52.530;13.304;2022-12-18T09:41:03;-3.10;99.90
6724;DHT22;3399;52.530;13.304;2022-12-18T09:43:37;-3.10;99.90
6724;DHT22;3399;52.530;13.304;2022-12-18T09:46:08;-3.10;99.90
6724;DHT22;3399;52.530;13.304;2022-12-18T09:48:39;-3.10;99.90
6724;DHT22;3399;52.530;13.304;2022-12-18T09:51:16;-3.10;99.90
6724;DHT22;3399;52.530;13.304;2022-12-18T09:54:04;-3.10;99.90
6724;DHT22;3399;52.530;13.304;2022-12-18T09:56:35;-3.10;99.90
6724;DHT22;3399;52.530;13.304;2022-12-18T09:59:03;-3.10;99.90
6724;DHT22;3399;52.530;13.304;2022-12-18T10:01:31;-3.10;99.90
6724;DHT22;3399;52.530;13.304;2022-12-18T10:03:57;-3.00;99.90
6724;DHT22;3399;52.530;13.304;2022-12-18T10:06:36;-2.90;99.90
6724;DHT22;3399;52.530;13.304;2022-12-18T10:09:09;-2.80;99.90
6724;DHT22;3399;52.530;13.304;2022-12-18T10:11:58;-2.70;99.90
6724;DHT22;3399;52.530;13.304;2022-12-18T10:14:40;-2.70;99.90
6724;DHT22;3399;52.530;13.304;2022-12-18T10:20:27;-2.60;99.90
6724;DHT22;3399;52.530;13.304;2022-12-18T10:23:08;-2.60;99.90
6724;DHT22;3399;52.530;13.304;2022-12-18T10:25:51;-2.60;99.90
6724;DHT22;3399;52.530;13.304;2022-12-18T10:28:19;-2.60;99.90
6724;DHT22;3399;52.530;13.304;2022-12-18T10:30:45;-2.60;99.90
6724;DHT22;3399;52.530;13.304;2022-12-18T10:33:17;-2.60;99.90
6724;DHT22;3399;52.530;13.304;2022-12-18T10:35:44;-2.50;99.90
6724;DHT22;3399;52.530;13.304;2022-12-18T10:38:20;-2.50;99.90
6724;DHT22;3399;52.530;13.304;2022-12-18T10:40:57;-2.40;99.90
6724;DHT22;3399;52.530;13.304;2022-12-18T10:43:32;-2.40;99.90
6724;DHT22;3399;52.530;13.304;2022-12-18T10:51:20;-2.30;99.90
6724;DHT22;3399;52.530;13.304;2022-12-18T10:53:58;-2.30;99.90
6724;DHT22;3399;52.530;13.304;2022-12-18T10:56:27;-2.20;99.90
6724;DHT22;3399;52.530;13.304;2022-12-18T10:59:05;-2.20;99.90
6724;DHT22;3399;52.530;13.304;2022-12-18T11:01:49;-2.20;99.90
6724;DHT22;3399;52.530;13.304;2022-12-18T11:04:21;-2.20;99.90
6724;DHT22;3399;52.530;13.304;2022-12-18T11:07:05;-2.20;99.90
6724;DHT22;3399;52.530;13.304;2022-12-18T11:09:36;-2.20;99.90
6724;DHT22;3399;52.530;13.304;2022-12-18T11:12:25;-2.20;99.90
6724;DHT22;3399;52.530;13.304;2022-12-18T11:14:52;-2.20;99.90
6724;DHT22;3399;52.530;13.304;2022-12-18T11:17:29;-2.10;99.90
6724;DHT22;3399;52.530;13.304;2022-12-18T11:20:00;-2.00;99.90
6724;DHT22;3399;52.530;13.304;2022-12-18T11:22:32;-2.00;99.90
6724;DHT22;3399;52.530;13.304;2022-12-18T11:27:37;-1.80;99.90
6724;DHT22;3399;52.530;13.304;2022-12-18T11:30:22;-1.80;99.90
6724;DHT22;3399;52.530;13.304;2022-12-18T11:33:05;-1.70;99.90
6724;DHT22;3399;52.530;13.304;2022-12-18T11:35:58;-1.70;99.90
6724;DHT22;3399;52.530;13.304;2022-12-18T11:38:28;-1.80;99.90
6724;DHT22;3399;52.530;13.304;2022-12-18T11:44:18;-1.90;99.90
6724;DHT22;3399;52.530;13.304;2022-12-18T11:46:51;-1.90;99.90
6724;DHT22;3399;52.530;13.304;2022-12-18T11:49:33;-1.80;99.90
6724;DHT22;3399;52.530;13.304;2022-12-18T11:52:19;-1.80;99.90
6724;DHT22;3399;52.530;13.304;2022-12-18T11:54:46;-1.80;99.90
6724;DHT22;3399;52.530;13.304;2022-12-18T11:57:28;-1.90;99.90
6724;DHT22;3399;52.530;13.304;2022-12-18T12:00:12;-1.90;99.90
6724;DHT22;3399;52.530;13.304;2022-12-18T12:08:42;-1.90;99.90
6724;DHT22;3399;52.530;13.304;2022-12-18T12:11:42;-1.90;99.90
6724;DHT22;3399;52.530;13.304;2022-12-18T12:16:54;-1.80;99.90
6724;DHT22;3399;52.530;13.304;2022-12-18T12:28:30;-1.90;99.90
6724;DHT22;3399;52.530;13.304;2022-12-18T12:33:08;-1.90;99.90
6724;DHT22;3399;52.530;13.304;2022-12-18T12:38:40;-1.90;99.90
6724;DHT22;3399;52.530;13.304;2022-12-18T12:41:12;-1.80;99.90
6724;DHT22;3399;52.530;13.304;2022-12-18T12:44:01;-1.80;99.90
6724;DHT22;3399;52.530;13.304;2022-12-18T12:46:31;-1.80;99.90
6724;DHT22;3399;52.530;13.304;2022-12-18T12:49:00;-1.80;99.90
6724;DHT22;3399;52.530;13.304;2022-12-18T12:51:37;-1.80;99.90
6724;DHT22;3399;52.530;13.304;2022-12-18T12:54:06;-1.80;99.90
6724;DHT22;3399;52.530;13.304;2022-12-18T12:56:45;-1.70;99.90
6724;DHT22;3399;52.530;13.304;2022-12-18T12:59:22;-1.80;99.90
6724;DHT22;3399;52.530;13.304;2022-12-18T13:02:01;-1.70;99.90
6724;DHT22;3399;52.530;13.304;2022-12-18T13:04:56;-1.70;99.90
6724;DHT22;3399;52.530;13.304;2022-12-18T13:07:37;-1.70;99.90
6724;DHT22;3399;52.530;13.304;2022-12-18T13:12:59;-1.70;99.90
6724;DHT22;3399;52.530;13.304;2022-12-18T13:15:37;-1.80;99.90
6724;DHT22;3399;52.530;13.304;2022-12-18T13:18:14;-1.90;99.90
6724;DHT22;3399;52.530;13.304;2022-12-18T13:20:46;-1.80;99.90
6724;DHT22;3399;52.530;13.304;2022-12-18T13:25:54;-1.80;99.90
6724;DHT22;3399;52.530;13.304;2022-12-18T13:28:24;-1.80;99.90
6724;DHT22;3399;52.530;13.304;2022-12-18T13:31:08;-1.80;99.90
6724;DHT22;3399;52.530;13.304;2022-12-18T13:38:47;-1.60;99.90
6724;DHT22;3399;52.530;13.304;2022-12-18T13:41:33;-1.60;99.90
6724;DHT22;3399;52.530;13.304;2022-12-18T13:46:45;-1.70;99.90
6724;DHT22;3399;52.530;13.304;2022-12-18T13:51:47;-1.60;99.90
6724;DHT22;3399;52.530;13.304;2022-12-18T13:56:48;-1.30;99.90
6724;DHT22;3399;52.530;13.304;2022-12-18T13:59:18;-1.00;99.90
6724;DHT22;3399;52.530;13.304;2022-12-18T14:01:47;-1.10;99.90
6724;DHT22;3399;52.530;13.304;2022-12-18T14:04:31;-1.10;99.90
6724;DHT22;3399;52.530;13.304;2022-12-18T14:07:05;-1.20;99.90
6724;DHT22;3399;52.530;13.304;2022-12-18T14:09:39;-1.40;99.90
6724;DHT22;3399;52.530;13.304;2022-12-18T14:12:06;-1.50;99.90
6724;DHT22;3399;52.530;13.304;2022-12-18T14:14:58;-1.70;99.90
6724;DHT22;3399;52.530;13.304;2022-12-18T14:17:24;-1.80;99.90
6724;DHT22;3399;52.530;13.304;2022-12-18T14:19:50;-1.90;99.90
6724;DHT22;3399;52.530;13.304;2022-12-18T14:22:18;-2.10;99.90
6724;DHT22;3399;52.530;13.304;2022-12-18T14:24:45;-2.10;99.90
6724;DHT22;3399;52.530;13.304;2022-12-18T14:27:25;-2.10;99.90
6724;DHT22;3399;52.530;13.304;2022-12-18T14:29:50;-2.20;99.90
6724;DHT22;3399;52.530;13.304;2022-12-18T14:32:18;-2.20;99.90
6724;DHT22;3399;52.530;13.304;2022-12-18T14:34:51;-2.10;99.90
6724;DHT22;3399;52.530;13.304;2022-12-18T14:37:24;-2.20;99.90
6724;DHT22;3399;52.530;13.304;2022-12-18T14:39:58;-2.30;99.90
6724;DHT22;3399;52.530;13.304;2022-12-18T14:42:25;-2.40;99.90
6724;DHT22;3399;52.530;13.304;2022-12-18T14:45:32;-2.40;99.90
6724;DHT22;3399;52.530;13.304;2022-12-18T14:47:58;-2.50;99.90
6724;DHT22;3399;52.530;13.304;2022-12-18T14:50:24;-2.50;99.90
6724;DHT22;3399;52.530;13.304;2022-12-18T14:52:50;-2.60;99.90
6724;DHT22;3399;52.530;13.304;2022-12-18T14:55:17;-2.60;99.90
6724;DHT22;3399;52.530;13.304;2022-12-18T14:57:43;-2.60;99.90
6724;DHT22;3399;52.530;13.304;2022-12-18T15:00:19;-2.60;99.90
6724;DHT22;3399;52.530;13.304;2022-12-18T15:02:50;-2.60;99.90
6724;DHT22;3399;52.530;13.304;2022-12-18T15:05:20;-2.60;99.90
6724;DHT22;3399;52.530;13.304;2022-12-18T15:07:48;-2.70;99.90
6724;DHT22;3399;52.530;13.304;2022-12-18T15:10:18;-2.60;99.90
6724;DHT22;3399;52.530;13.304;2022-12-18T15:12:49;-2.60;99.90
6724;DHT22;3399;52.530;13.304;2022-12-18T15:18:00;-2.60;99.90
6724;DHT22;3399;52.530;13.304;2022-12-18T15:20:26;-2.50;99.90
6724;DHT22;3399;52.530;13.304;2022-12-18T15:22:52;-2.50;99.90
6724;DHT22;3399;52.530;13.304;2022-12-18T15:25:32;-2.50;99.90
6724;DHT22;3399;52.530;13.304;2022-12-18T15:27:58;-2.60;99.90
6724;DHT22;3399;52.530;13.304;2022-12-18T15:30:26;-2.60;99.90
6724;DHT22;3399;52.530;13.304;2022-12-18T15:32:52;-2.60;99.90
6724;DHT22;3399;52.530;13.304;2022-12-18T15:35:37;-2.70;99.90
6724;DHT22;3399;52.530;13.304;2022-12-18T15:38:03;-2.60;99.90
6724;DHT22;3399;52.530;13.304;2022-12-18T15:40:28;-2.70;99.90
6724;DHT22;3399;52.530;13.304;2022-12-18T15:42:55;-2.60;99.90
6724;DHT22;3399;52.530;13.304;2022-12-18T15:45:39;-2.70;99.90
6724;DHT22;3399;52.530;13.304;2022-12-18T15:48:20;-2.70;99.90
6724;DHT22;3399;52.530;13.304;2022-12-18T15:50:46;-2.80;99.90
6724;DHT22;3399;52.530;13.304;2022-12-18T15:53:11;-2.80;99.90
6724;DHT22;3399;52.530;13.304;2022-12-18T15:55:37;-2.90;99.90
6724;DHT22;3399;52.530;13.304;2022-12-18T15:58:21;-3.00;99.90
6724;DHT22;3399;52.530;13.304;2022-12-18T16:00:47;-3.00;99.90
6724;DHT22;3399;52.530;13.304;2022-12-18T16:03:12;-3.00;99.90
6724;DHT22;3399;52.530;13.304;2022-12-18T16:05:38;-3.00;99.90
6724;DHT22;3399;52.530;13.304;2022-12-18T16:08:03;-3.00;99.90
6724;DHT22;3399;52.530;13.304;2022-12-18T16:10:29;-3.00;99.90
6724;DHT22;3399;52.530;13.304;2022-12-18T16:12:55;-3.00;99.90
6724;DHT22;3399;52.530;13.304;2022-12-18T16:15:20;-3.00;99.90
6724;DHT22;3399;52.530;13.304;2022-12-18T16:17:46;-3.00;99.90
6724;DHT22;3399;52.530;13.304;2022-12-18T16:20:14;-3.00;99.90
6724;DHT22;3399;52.530;13.304;2022-12-18T16:22:41;-2.90;99.90
6724;DHT22;3399;52.530;13.304;2022-12-18T16:25:19;-3.00;99.90
6724;DHT22;3399;52.530;13.304;2022-12-18T16:27:45;-3.10;99.90
6724;DHT22;3399;52.530;13.304;2022-12-18T16:30:15;-3.10;99.90
6724;DHT22;3399;52.530;13.304;2022-12-18T16:32:41;-3.10;99.90
6724;DHT22;3399;52.530;13.304;2022-12-18T16:35:11;-3.00;99.90
6724;DHT22;3399;52.530;13.304;2022-12-18T16:37:38;-3.00;99.90
6724;DHT22;3399;52.530;13.304;2022-12-18T16:40:04;-3.00;99.90
6724;DHT22;3399;52.530;13.304;2022-12-18T16:42:30;-3.00;99.90
6724;DHT22;3399;52.530;13.304;2022-12-18T16:44:56;-3.00;99.90
6724;DHT22;3399;52.530;13.304;2022-12-18T16:47:21;-3.00;99.90
6724;DHT22;3399;52.530;13.304;2022-12-18T16:49:47;-3.00;99.90
6724;DHT22;3399;52.530;13.304;2022-12-18T16:52:15;-3.00;99.90
6724;DHT22;3399;52.530;13.304;2022-12-18T16:54:41;-3.00;99.90
6724;DHT22;3399;52.530;13.304;2022-12-18T16:57:09;-3.00;99.90
6724;DHT22;3399;52.530;13.304;2022-12-18T16:59:35;-3.10;99.90
6724;DHT22;3399;52.530;13.304;2022-12-18T17:02:01;-3.10;99.90
6724;DHT22;3399;52.530;13.304;2022-12-18T17:04:29;-3.20;99.90
6724;DHT22;3399;52.530;13.304;2022-12-18T17:06:55;-3.20;99.90
6724;DHT22;3399;52.530;13.304;2022-12-18T17:09:21;-3.20;99.90